createdAt,value
2023-03-29T00:00:45.940Z,86.49
2023-03-29T00:01:45.922Z,86.87
2023-03-29T00:02:46.826Z,86.87
2023-03-29T00:03:45.961Z,86.87
2023-03-29T00:04:45.951Z,86.87
2023-03-29T00:05:45.891Z,86.76
2023-03-29T00:06:45.823Z,86.97
2023-03-29T00:07:45.814Z,86.35
2023-03-29T00:08:45.881Z,86.45
2023-03-29T00:09:46.357Z,86.55
2023-03-29T00:10:45.793Z,87.38
2023-03-29T00:11:45.790Z,87.28
2023-03-29T00:12:45.755Z,87.49
2023-03-29T00:13:45.746Z,87.70
2023-03-29T00:14:45.819Z,87.49
2023-03-29T00:15:45.736Z,87.28
2023-03-29T00:16:45.767Z,87.49
2023-03-29T00:17:45.790Z,87.38
2023-03-29T00:18:45.756Z,87.07
2023-03-29T00:19:45.670Z,86.76
2023-03-29T00:20:45.689Z,86.76
2023-03-29T00:21:46.052Z,87.18
2023-03-29T00:22:45.667Z,87.38
2023-03-29T00:23:45.646Z,87.18
2023-03-29T00:24:45.655Z,87.59
2023-03-29T00:25:45.688Z,87.18
2023-03-29T00:26:45.654Z,87.49
2023-03-29T00:27:45.593Z,87.38
2023-03-29T00:28:46.549Z,87.28
2023-03-29T00:29:45.606Z,87.49
2023-03-29T00:30:45.599Z,87.95
2023-03-29T00:31:45.641Z,88.21
2023-03-29T00:32:45.581Z,88.57
2023-03-29T00:33:45.521Z,88.36
2023-03-29T00:34:45.590Z,88.57
2023-03-29T00:35:45.542Z,88.46
2023-03-29T00:36:45.528Z,88.78
2023-03-29T00:37:45.536Z,88.63
2023-03-29T00:38:45.495Z,88.67
2023-03-29T00:39:45.531Z,88.15
2023-03-29T00:40:45.502Z,88.36
2023-03-29T00:41:45.466Z,88.57
2023-03-29T00:42:45.487Z,88.51
2023-03-29T00:43:45.463Z,88.36
2023-03-29T00:44:45.450Z,87.95
2023-03-29T00:45:45.497Z,88.15
2023-03-29T00:46:45.540Z,88.05
2023-03-29T00:47:45.408Z,87.95
2023-03-29T00:48:45.846Z,87.84
2023-03-29T00:49:45.369Z,88.26
2023-03-29T00:50:45.789Z,88.15
2023-03-29T00:51:45.415Z,88.09
2023-03-29T00:52:45.534Z,88.40
2023-03-29T00:53:45.312Z,88.71
2023-03-29T00:54:45.368Z,88.92
2023-03-29T00:55:45.315Z,88.78
2023-03-29T00:56:45.358Z,88.82
2023-03-29T00:57:45.307Z,88.61
2023-03-29T00:58:45.271Z,88.92
2023-03-29T00:59:45.286Z,89.03
2023-03-29T01:00:45.316Z,88.71
2023-03-29T01:01:45.275Z,88.67
2023-03-29T01:02:45.319Z,88.71
2023-03-29T01:03:45.330Z,88.92
2023-03-29T01:04:45.289Z,89.03
2023-03-29T01:05:45.206Z,88.88
2023-03-29T01:06:45.219Z,89.13
2023-03-29T01:07:45.327Z,89.40
2023-03-29T01:08:45.213Z,89.23
2023-03-29T01:09:45.188Z,88.98
2023-03-29T01:10:45.194Z,88.78
2023-03-29T01:11:45.160Z,88.92
2023-03-29T01:12:45.186Z,88.88
2023-03-29T01:13:45.212Z,89.19
2023-03-29T01:14:45.212Z,88.98
2023-03-29T01:15:45.134Z,89.19
2023-03-29T01:16:45.169Z,89.34
2023-03-29T01:17:45.201Z,89.86
2023-03-29T01:18:45.097Z,89.75
2023-03-29T01:19:45.270Z,89.86
2023-03-29T01:20:45.063Z,89.65
2023-03-29T01:21:45.127Z,89.75
2023-03-29T01:22:45.083Z,89.75
2023-03-29T01:23:45.051Z,89.96
2023-03-29T01:24:45.048Z,89.89
2023-03-29T01:25:45.055Z,89.86
2023-03-29T01:26:45.151Z,90.00
2023-03-29T01:27:45.057Z,89.75
2023-03-29T01:28:45.054Z,89.34
2023-03-29T01:29:44.977Z,89.65
2023-03-29T01:30:44.975Z,89.54
2023-03-29T01:31:45.004Z,89.44
2023-03-29T01:32:44.989Z,89.23
2023-03-29T01:33:45.034Z,89.03
2023-03-29T01:34:44.970Z,88.96
2023-03-29T01:35:44.991Z,89.23
2023-03-29T01:36:44.934Z,89.23
2023-03-29T01:37:44.940Z,89.34
2023-03-29T01:38:44.968Z,89.54
2023-03-29T01:39:44.866Z,89.79
2023-03-29T01:40:44.944Z,89.75
2023-03-29T01:41:44.880Z,89.89
2023-03-29T01:42:44.893Z,89.86
2023-03-29T01:43:44.851Z,89.96
2023-03-29T01:44:44.863Z,90.06
2023-03-29T01:45:44.867Z,89.65
2023-03-29T01:46:44.871Z,89.75
2023-03-29T01:47:44.870Z,89.86
2023-03-29T01:48:44.870Z,89.86
2023-03-29T01:49:44.838Z,89.54
2023-03-29T01:50:44.797Z,89.03
2023-03-29T01:51:44.793Z,88.98
2023-03-29T01:52:44.768Z,89.13
2023-03-29T01:53:44.778Z,88.88
2023-03-29T01:54:44.763Z,89.19
2023-03-29T01:55:44.808Z,88.67
2023-03-29T01:56:44.881Z,88.46
2023-03-29T01:57:44.750Z,88.15
2023-03-29T01:58:44.742Z,88.36
2023-03-29T01:59:44.750Z,88.26
2023-03-29T02:00:44.720Z,88.05
2023-03-29T02:01:44.709Z,87.74
2023-03-29T02:02:44.724Z,87.80
2023-03-29T02:03:44.781Z,87.28
2023-03-29T02:04:44.711Z,87.49
2023-03-29T02:05:44.692Z,87.38
2023-03-29T02:06:44.632Z,87.38
2023-03-29T02:07:44.698Z,86.76
2023-03-29T02:08:44.619Z,86.83
2023-03-29T02:09:44.583Z,86.97
2023-03-29T02:10:45.537Z,86.76
2023-03-29T02:11:44.619Z,86.83
2023-03-29T02:12:44.629Z,86.87
2023-03-29T02:13:44.565Z,86.87
2023-03-29T02:14:44.545Z,86.55
2023-03-29T02:15:44.603Z,86.45
2023-03-29T02:16:44.571Z,86.35
2023-03-29T02:17:44.617Z,85.94
2023-03-29T02:18:44.533Z,86.45
2023-03-29T02:19:44.555Z,86.45
2023-03-29T02:20:44.520Z,86.00
2023-03-29T02:21:44.540Z,86.15
2023-03-29T02:22:45.515Z,86.15
2023-03-29T02:23:44.503Z,86.66
2023-03-29T02:24:44.498Z,86.45
2023-03-29T02:25:44.433Z,86.76
2023-03-29T02:26:44.464Z,86.97
2023-03-29T02:27:44.481Z,86.97
2023-03-29T02:28:44.475Z,86.66
2023-03-29T02:29:44.408Z,86.97
2023-03-29T02:30:44.589Z,86.15
2023-03-29T02:31:44.475Z,86.52
2023-03-29T02:32:44.444Z,86.00
2023-03-29T02:33:44.377Z,86.97
2023-03-29T02:34:44.433Z,86.76
2023-03-29T02:35:44.586Z,86.66
2023-03-29T02:36:44.373Z,86.83
2023-03-29T02:37:44.390Z,86.52
2023-03-29T02:38:44.333Z,86.93
2023-03-29T02:39:44.340Z,86.83
2023-03-29T02:40:44.388Z,87.07
2023-03-29T02:41:44.316Z,86.87
2023-03-29T02:42:44.403Z,87.24
2023-03-29T02:43:44.288Z,86.52
2023-03-29T02:44:44.256Z,86.62
2023-03-29T02:45:44.280Z,86.76
2023-03-29T02:46:44.351Z,86.72
2023-03-29T02:47:45.024Z,86.76
2023-03-29T02:48:44.297Z,86.97
2023-03-29T02:49:44.322Z,86.66
2023-03-29T02:50:44.273Z,86.87
2023-03-29T02:51:44.215Z,86.83
2023-03-29T02:52:44.249Z,86.87
2023-03-29T02:53:44.189Z,86.87
2023-03-29T02:54:44.988Z,86.83
2023-03-29T02:55:44.192Z,86.66
2023-03-29T02:56:44.221Z,87.18
2023-03-29T02:57:44.181Z,87.28
2023-03-29T02:58:44.166Z,87.45
2023-03-29T02:59:44.262Z,87.80
2023-03-29T03:00:44.137Z,87.90
2023-03-29T03:01:45.131Z,87.80
2023-03-29T03:02:44.193Z,87.97
2023-03-29T03:03:44.205Z,87.90
2023-03-29T03:04:44.151Z,87.66
2023-03-29T03:05:44.132Z,87.70
2023-03-29T03:06:44.063Z,88.18
2023-03-29T03:07:44.108Z,88.01
2023-03-29T03:08:44.117Z,88.11
2023-03-29T03:09:44.058Z,88.07
2023-03-29T03:10:45.055Z,87.80
2023-03-29T03:11:44.042Z,87.97
2023-03-29T03:12:44.039Z,87.80
2023-03-29T03:13:44.018Z,88.11
2023-03-29T03:14:43.973Z,87.90
2023-03-29T03:15:44.056Z,87.87
2023-03-29T03:16:44.013Z,87.76
2023-03-29T03:17:44.094Z,87.80
2023-03-29T03:18:43.971Z,87.87
2023-03-29T03:19:43.972Z,87.80
2023-03-29T03:20:43.994Z,87.70
2023-03-29T03:21:43.903Z,87.49
2023-03-29T03:22:43.955Z,87.45
2023-03-29T03:23:44.040Z,87.45
2023-03-29T03:24:43.917Z,87.24
2023-03-29T03:25:43.880Z,87.24
2023-03-29T03:26:43.954Z,87.24
2023-03-29T03:27:43.912Z,87.55
2023-03-29T03:28:43.862Z,87.49
2023-03-29T03:29:43.873Z,87.45
2023-03-29T03:30:43.881Z,87.24
2023-03-29T03:31:44.505Z,87.45
2023-03-29T03:32:43.849Z,87.45
2023-03-29T03:33:43.838Z,87.38
2023-03-29T03:34:43.814Z,87.70
2023-03-29T03:35:43.836Z,87.24
2023-03-29T03:36:43.799Z,87.24
2023-03-29T03:37:43.743Z,87.35
2023-03-29T03:38:43.882Z,87.35
2023-03-29T03:39:43.738Z,87.35
2023-03-29T03:40:43.742Z,87.24
2023-03-29T03:41:43.758Z,87.24
2023-03-29T03:42:43.741Z,87.24
2023-03-29T03:43:43.701Z,86.72
2023-03-29T03:44:43.694Z,86.72
2023-03-29T03:45:43.729Z,87.35
2023-03-29T03:46:43.677Z,87.45
2023-03-29T03:47:43.688Z,87.70
2023-03-29T03:48:43.698Z,87.70
2023-03-29T03:49:43.640Z,87.49
2023-03-29T03:50:43.653Z,87.55
2023-03-29T03:51:43.631Z,87.24
2023-03-29T03:52:43.616Z,87.24
2023-03-29T03:53:43.640Z,87.24
2023-03-29T03:54:43.577Z,87.45
2023-03-29T03:55:43.603Z,87.24
2023-03-29T03:56:43.667Z,87.35
2023-03-29T03:57:43.617Z,87.35
2023-03-29T03:58:43.620Z,87.55
2023-03-29T03:59:43.643Z,87.45
2023-03-29T04:00:43.677Z,87.55
2023-03-29T04:01:43.601Z,87.76
2023-03-29T04:02:43.566Z,87.80
2023-03-29T04:03:43.585Z,87.87
2023-03-29T04:04:43.427Z,88.18
2023-03-29T04:05:43.458Z,88.01
2023-03-29T04:06:43.926Z,88.01
2023-03-29T04:07:44.439Z,88.21
2023-03-29T04:08:43.471Z,87.87
2023-03-29T04:09:43.400Z,87.87
2023-03-29T04:10:43.412Z,88.01
2023-03-29T04:11:43.503Z,88.11
2023-03-29T04:12:43.404Z,88.32
2023-03-29T04:13:43.453Z,88.63
2023-03-29T04:14:43.365Z,88.59
2023-03-29T04:15:44.031Z,88.63
2023-03-29T04:16:43.361Z,88.28
2023-03-29T04:17:43.449Z,88.32
2023-03-29T04:18:43.474Z,88.11
2023-03-29T04:19:43.348Z,88.39
2023-03-29T04:20:43.312Z,88.48
2023-03-29T04:21:43.319Z,88.48
2023-03-29T04:22:43.322Z,87.97
2023-03-29T04:23:43.321Z,88.01
2023-03-29T04:24:43.305Z,87.97
2023-03-29T04:25:43.298Z,87.66
2023-03-29T04:26:43.286Z,87.87
2023-03-29T04:27:43.270Z,87.87
2023-03-29T04:28:43.292Z,87.55
2023-03-29T04:29:43.276Z,87.24
2023-03-29T04:30:43.213Z,87.66
2023-03-29T04:31:43.256Z,87.45
2023-03-29T04:32:43.261Z,87.66
2023-03-29T04:33:43.313Z,87.55
2023-03-29T04:34:43.191Z,87.45
2023-03-29T04:35:43.183Z,87.24
2023-03-29T04:36:43.192Z,87.24
2023-03-29T04:37:43.165Z,87.45
2023-03-29T04:38:47.374Z,87.35
2023-03-29T04:39:43.122Z,87.14
2023-03-29T04:40:43.156Z,87.66
2023-03-29T04:41:43.104Z,87.35
2023-03-29T04:42:43.119Z,87.20
2023-03-29T04:43:43.171Z,87.35
2023-03-29T04:44:43.132Z,87.24
2023-03-29T04:45:43.109Z,87.45
2023-03-29T04:46:43.230Z,87.55
2023-03-29T04:47:43.195Z,87.14
2023-03-29T04:48:43.064Z,87.45
2023-03-29T04:49:43.086Z,87.55
2023-03-29T04:50:43.038Z,87.30
2023-03-29T04:51:42.995Z,86.62
2023-03-29T04:52:42.988Z,87.14
2023-03-29T04:53:43.019Z,87.24
2023-03-29T04:54:43.164Z,87.66
2023-03-29T04:55:42.963Z,87.14
2023-03-29T04:56:43.004Z,86.72
2023-03-29T04:57:42.958Z,87.24
2023-03-29T04:58:42.984Z,87.18
2023-03-29T04:59:43.004Z,87.97
2023-03-29T05:00:42.929Z,88.01
2023-03-29T05:01:43.171Z,88.11
2023-03-29T05:02:43.030Z,88.18
2023-03-29T05:03:43.010Z,88.07
2023-03-29T05:04:43.063Z,87.76
2023-03-29T05:05:42.887Z,87.66
2023-03-29T05:06:43.510Z,87.66
2023-03-29T05:07:42.866Z,87.30
2023-03-29T05:08:42.894Z,87.35
2023-03-29T05:09:42.826Z,87.24
2023-03-29T05:10:42.834Z,87.66
2023-03-29T05:11:42.862Z,87.35
2023-03-29T05:12:42.819Z,87.24
2023-03-29T05:13:43.580Z,87.24
2023-03-29T05:14:42.874Z,87.24
2023-03-29T05:15:42.800Z,87.55
2023-03-29T05:16:42.901Z,87.76
2023-03-29T05:17:42.797Z,87.76
2023-03-29T05:18:42.766Z,87.90
2023-03-29T05:19:42.805Z,88.01
2023-03-29T05:20:43.477Z,88.32
2023-03-29T05:21:44.387Z,88.59
2023-03-29T05:22:44.546Z,88.53
2023-03-29T05:23:42.733Z,88.63
2023-03-29T05:24:42.694Z,88.59
2023-03-29T05:25:42.671Z,88.48
2023-03-29T05:26:42.658Z,88.48
2023-03-29T05:27:42.718Z,88.63
2023-03-29T05:28:42.680Z,88.42
2023-03-29T05:29:42.667Z,88.53
2023-03-29T05:30:42.626Z,88.73
2023-03-29T05:31:42.685Z,88.39
2023-03-29T05:32:42.661Z,88.39
2023-03-29T05:33:42.665Z,88.42
2023-03-29T05:34:42.642Z,88.42
2023-03-29T05:35:42.555Z,88.59
2023-03-29T05:36:42.599Z,88.59
2023-03-29T05:37:42.571Z,88.18
2023-03-29T05:38:42.558Z,88.07
2023-03-29T05:39:42.539Z,87.97
2023-03-29T05:40:42.534Z,88.03
2023-03-29T05:41:43.569Z,88.07
2023-03-29T05:42:42.528Z,87.82
2023-03-29T05:43:43.511Z,87.97
2023-03-29T05:44:42.488Z,87.72
2023-03-29T05:45:42.573Z,87.51
2023-03-29T05:46:42.451Z,87.93
2023-03-29T05:47:42.532Z,87.41
2023-03-29T05:48:43.409Z,87.47
2023-03-29T05:49:45.163Z,87.37
2023-03-29T05:50:44.398Z,87.10
2023-03-29T05:51:42.479Z,87.20
2023-03-29T05:52:42.629Z,87.27
2023-03-29T05:53:42.397Z,86.54
2023-03-29T05:54:42.440Z,86.65
2023-03-29T05:55:42.628Z,86.65
2023-03-29T05:56:42.469Z,87.37
2023-03-29T05:57:42.461Z,87.37
2023-03-29T05:58:42.476Z,87.27
2023-03-29T05:59:42.381Z,87.37
2023-03-29T06:00:42.353Z,86.71
2023-03-29T06:01:42.368Z,86.65
2023-03-29T06:02:42.447Z,86.65
2023-03-29T06:03:42.565Z,86.13
2023-03-29T06:04:42.340Z,86.13
2023-03-29T06:05:42.395Z,85.99
2023-03-29T06:06:42.533Z,86.13
2023-03-29T06:07:42.341Z,85.92
2023-03-29T06:08:42.327Z,86.54
2023-03-29T06:09:42.296Z,86.54
2023-03-29T06:10:42.390Z,86.75
2023-03-29T06:11:42.313Z,87.06
2023-03-29T06:12:42.287Z,86.91
2023-03-29T06:13:42.393Z,87.23
2023-03-29T06:14:42.344Z,86.33
2023-03-29T06:15:42.314Z,85.99
2023-03-29T06:16:42.937Z,86.02
2023-03-29T06:17:43.332Z,85.47
2023-03-29T06:18:42.309Z,85.68
2023-03-29T06:32:51.049Z,87.37
2023-03-29T06:33:51.092Z,87.37
2023-03-29T06:34:50.969Z,87.37
2023-03-29T06:35:51.020Z,87.57
2023-03-29T06:36:50.838Z,88.20
2023-03-29T06:37:50.790Z,87.85
2023-03-29T06:38:51.970Z,87.74
2023-03-29T06:39:53.226Z,87.33
2023-03-29T06:40:53.000Z,87.29
2023-03-29T06:41:51.917Z,86.91
2023-03-29T06:42:51.911Z,85.99
2023-03-29T06:43:51.920Z,86.60
2023-03-29T06:44:51.952Z,87.33
2023-03-29T06:45:51.904Z,86.98
2023-03-29T06:46:51.976Z,86.25
2023-03-29T06:47:52.808Z,86.57
2023-03-29T06:48:51.850Z,86.98
2023-03-29T06:49:52.592Z,85.94
2023-03-29T06:50:51.854Z,86.05
2023-03-29T06:51:51.807Z,85.70
2023-03-29T06:52:51.813Z,86.01
2023-03-29T06:53:51.780Z,85.80
2023-03-29T06:54:51.810Z,86.01
2023-03-29T06:55:51.794Z,85.60
2023-03-29T06:56:51.799Z,84.87
2023-03-29T06:57:51.811Z,84.56
2023-03-29T06:58:51.753Z,84.36
2023-03-29T06:59:51.762Z,85.24
2023-03-29T07:00:51.762Z,85.39
2023-03-29T07:01:51.809Z,85.24
2023-03-29T07:02:51.795Z,85.45
2023-03-29T07:03:51.735Z,84.79
2023-03-29T07:04:51.766Z,84.48
2023-03-29T07:05:51.696Z,83.65
2023-03-29T07:06:51.717Z,83.86
2023-03-29T07:07:51.668Z,83.55
2023-03-29T07:08:51.724Z,83.41
2023-03-29T07:09:51.702Z,82.79
2023-03-29T07:10:51.618Z,83.00
2023-03-29T07:11:51.641Z,83.10
2023-03-29T07:12:51.726Z,82.89
2023-03-29T07:13:51.642Z,83.20
2023-03-29T07:14:51.636Z,83.10
2023-03-29T07:15:51.595Z,82.48
2023-03-29T07:16:51.570Z,82.89
2023-03-29T07:17:51.592Z,82.89
2023-03-29T07:18:51.569Z,82.48
2023-03-29T07:19:52.076Z,83.06
2023-03-29T07:20:51.531Z,83.06
2023-03-29T07:21:51.538Z,82.59
2023-03-29T07:22:51.590Z,83.10
2023-03-29T07:23:51.559Z,82.89
2023-03-29T07:24:51.574Z,82.75
2023-03-29T07:25:51.533Z,82.65
2023-03-29T07:27:03.200Z,82.55
2023-03-29T07:27:53.487Z,82.03
2023-03-29T07:28:51.479Z,82.17
2023-03-29T07:29:51.532Z,82.14
2023-03-29T07:30:51.593Z,82.07
2023-03-29T07:31:51.440Z,83.00
2023-03-29T07:32:51.540Z,82.89
2023-03-29T07:33:51.472Z,82.86
2023-03-29T07:34:51.442Z,82.79
2023-03-29T07:35:51.460Z,82.34
2023-03-29T07:36:51.496Z,83.06
2023-03-29T07:37:51.473Z,82.75
2023-03-29T07:38:52.450Z,82.96
2023-03-29T07:39:51.396Z,82.14
2023-03-29T07:40:51.617Z,82.86
2023-03-29T07:41:51.379Z,83.27
2023-03-29T07:42:51.401Z,83.06
2023-03-29T07:43:51.557Z,82.65
2023-03-29T07:44:51.393Z,82.14
2023-03-29T07:45:51.431Z,82.40
2023-03-29T07:46:51.300Z,82.55
2023-03-29T07:47:51.439Z,83.27
2023-03-29T07:48:51.325Z,82.10
2023-03-29T07:49:51.354Z,82.10
2023-03-29T07:50:52.368Z,81.37
2023-03-29T07:51:51.268Z,80.86
2023-03-29T07:52:51.230Z,81.58
2023-03-29T07:53:51.233Z,81.85
2023-03-29T07:54:51.263Z,81.44
2023-03-29T07:55:51.246Z,81.65
2023-03-29T07:56:51.318Z,80.89
2023-03-29T07:57:51.217Z,81.20
2023-03-29T07:58:51.224Z,79.96
2023-03-29T07:59:51.232Z,80.79
2023-03-29T08:00:51.268Z,79.86
2023-03-29T08:01:51.231Z,80.47
2023-03-29T08:02:51.201Z,79.86
2023-03-29T08:03:51.441Z,80.16
2023-03-29T08:04:51.147Z,80.37
2023-03-29T08:05:51.132Z,79.75
2023-03-29T08:06:51.051Z,80.06
2023-03-29T08:07:51.097Z,79.72
2023-03-29T08:08:51.087Z,79.51
2023-03-29T08:09:51.113Z,79.72
2023-03-29T08:10:51.071Z,79.61
2023-03-29T08:11:51.030Z,79.27
2023-03-29T08:12:51.075Z,79.20
2023-03-29T08:13:50.998Z,79.58
2023-03-29T08:14:51.010Z,78.86
2023-03-29T08:15:51.007Z,78.96
2023-03-29T08:16:51.105Z,79.16
2023-03-29T08:17:51.041Z,78.34
2023-03-29T08:18:50.956Z,79.06
2023-03-29T08:19:51.678Z,79.88
2023-03-29T08:20:51.037Z,79.16
2023-03-29T08:21:50.943Z,78.44
2023-03-29T08:22:50.959Z,78.41
2023-03-29T08:23:51.033Z,78.41
2023-03-29T08:24:51.072Z,79.27
2023-03-29T08:25:51.003Z,78.03
2023-03-29T08:26:51.063Z,78.96
2023-03-29T08:27:50.860Z,79.47
2023-03-29T08:28:50.932Z,80.30
2023-03-29T08:29:51.278Z,79.88
2023-03-29T08:30:50.888Z,80.40
2023-03-29T08:31:51.586Z,81.23
2023-03-29T08:32:52.286Z,80.61
2023-03-29T08:33:51.873Z,80.30
2023-03-29T08:34:50.871Z,79.88
2023-03-29T08:35:50.858Z,79.68
2023-03-29T08:36:51.766Z,78.75
2023-03-29T08:37:50.813Z,79.47
2023-03-29T08:38:50.817Z,78.44
2023-03-29T08:39:50.765Z,79.99
2023-03-29T08:40:50.740Z,78.44
2023-03-29T08:41:50.743Z,78.41
2023-03-29T08:42:50.753Z,78.20
2023-03-29T08:43:51.253Z,78.92
2023-03-29T08:44:50.747Z,79.23
2023-03-29T08:45:51.094Z,79.23
2023-03-29T08:46:51.828Z,78.61
2023-03-29T08:47:50.721Z,78.51
2023-03-29T08:48:50.782Z,78.27
2023-03-29T08:49:50.695Z,78.10
2023-03-29T08:50:50.692Z,78.58
2023-03-29T08:51:50.730Z,78.47
2023-03-29T08:52:50.735Z,78.89
2023-03-29T08:53:50.624Z,78.27
2023-03-29T08:54:50.668Z,79.50
2023-03-29T08:55:50.751Z,80.63
2023-03-29T08:56:50.988Z,78.99
2023-03-29T08:57:50.618Z,78.78
2023-03-29T08:58:50.655Z,77.92
2023-03-29T08:59:50.597Z,78.54
2023-03-29T09:00:50.624Z,78.23
2023-03-29T09:01:50.780Z,77.92
2023-03-29T09:02:50.648Z,78.27
2023-03-29T09:03:50.694Z,77.72
2023-03-29T09:04:50.518Z,78.54
2023-03-29T09:05:50.504Z,77.92
2023-03-29T09:06:50.571Z,77.51
2023-03-29T09:07:50.545Z,77.72
2023-03-29T09:08:50.820Z,78.03
2023-03-29T09:09:50.511Z,78.33
2023-03-29T09:10:50.482Z,77.72
2023-03-29T09:11:50.438Z,78.03
2023-03-29T09:12:50.602Z,77.58
2023-03-29T09:13:50.432Z,77.68
2023-03-29T09:14:50.515Z,77.78
2023-03-29T09:15:50.763Z,76.72
2023-03-29T09:16:50.409Z,75.80
2023-03-29T09:17:50.419Z,76.00
2023-03-29T09:18:50.442Z,75.80
2023-03-29T09:19:50.394Z,77.92
2023-03-29T09:20:50.469Z,78.12
2023-03-29T09:21:50.353Z,77.65
2023-03-29T09:22:50.430Z,75.76
2023-03-29T09:23:50.344Z,76.00
2023-03-29T09:24:50.420Z,75.97
2023-03-29T09:25:53.531Z,75.04
2023-03-29T09:26:51.314Z,74.94
2023-03-29T09:27:51.218Z,75.76
2023-03-29T09:28:50.314Z,77.55
2023-03-29T09:29:50.252Z,77.65
2023-03-29T09:30:50.411Z,77.27
2023-03-29T09:31:50.290Z,77.95
2023-03-29T09:32:50.383Z,75.90
2023-03-29T09:33:50.222Z,76.31
2023-03-29T09:34:50.275Z,76.93
2023-03-29T09:35:50.284Z,76.82
2023-03-29T09:36:50.313Z,77.44
2023-03-29T09:37:50.272Z,77.55
2023-03-29T09:38:50.292Z,77.68
2023-03-29T09:39:50.133Z,77.75
2023-03-29T09:40:50.258Z,77.44
2023-03-29T09:41:50.120Z,77.75
2023-03-29T09:42:50.232Z,77.34
2023-03-29T09:43:51.250Z,77.30
2023-03-29T09:44:50.221Z,77.55
2023-03-29T09:45:50.226Z,77.61
2023-03-29T09:46:50.090Z,76.89
2023-03-29T09:47:50.149Z,75.87
2023-03-29T09:48:50.180Z,75.97
2023-03-29T09:49:50.123Z,76.38
2023-03-29T09:50:50.181Z,75.73
2023-03-29T09:51:53.131Z,75.93
2023-03-29T09:52:50.173Z,76.68
2023-03-29T09:53:50.119Z,76.79
2023-03-29T09:54:49.994Z,77.40
2023-03-29T09:55:50.481Z,76.24
2023-03-29T09:57:22.725Z,77.71
2023-03-29T09:57:50.178Z,77.58
2023-03-29T09:58:50.291Z,77.37
2023-03-29T09:59:50.097Z,75.93
2023-03-29T10:00:50.061Z,77.06
2023-03-29T10:01:50.095Z,76.55
2023-03-29T10:02:49.963Z,76.41
2023-03-29T10:03:50.356Z,76.72
2023-03-29T10:04:49.974Z,77.40
2023-03-29T10:05:49.981Z,76.58
2023-03-29T10:06:50.032Z,76.37
2023-03-29T10:07:49.939Z,75.59
2023-03-29T10:08:49.927Z,75.79
2023-03-29T10:09:49.908Z,74.57
2023-03-29T10:10:49.942Z,75.73
2023-03-29T10:11:50.741Z,76.51
2023-03-29T10:12:49.873Z,76.48
2023-03-29T10:13:50.629Z,77.09
2023-03-29T10:14:51.520Z,77.20
2023-03-29T10:15:49.905Z,75.96
2023-03-29T10:16:49.869Z,75.66
2023-03-29T10:17:49.884Z,77.47
2023-03-29T10:18:49.951Z,75.42
2023-03-29T10:19:49.825Z,73.88
2023-03-29T10:20:49.817Z,74.49
2023-03-29T10:21:49.778Z,75.76
2023-03-29T10:22:49.883Z,75.86
2023-03-29T10:23:49.751Z,75.93
2023-03-29T10:24:49.752Z,75.52
2023-03-29T10:25:49.845Z,75.73
2023-03-29T10:26:49.743Z,74.70
2023-03-29T10:27:49.712Z,74.77
2023-03-29T10:28:49.710Z,74.77
2023-03-29T10:29:50.044Z,75.65
2023-03-29T10:30:49.762Z,73.71
2023-03-29T10:31:49.788Z,73.91
2023-03-29T10:32:49.770Z,75.45
2023-03-29T10:33:49.718Z,73.40
2023-03-29T10:34:49.813Z,74.56
2023-03-29T10:35:49.670Z,74.77
2023-03-29T10:36:49.686Z,75.69
2023-03-29T10:37:49.624Z,75.18
2023-03-29T10:38:49.596Z,74.32
2023-03-29T10:39:49.690Z,73.81
2023-03-29T10:40:49.597Z,74.36
2023-03-29T10:41:49.630Z,75.65
2023-03-29T10:42:49.598Z,75.86
2023-03-29T10:43:49.647Z,76.13
2023-03-29T10:44:49.539Z,77.36
2023-03-29T10:45:49.592Z,75.72
2023-03-29T10:46:49.531Z,74.32
2023-03-29T10:47:49.552Z,73.78
2023-03-29T10:48:50.346Z,73.98
2023-03-29T10:49:50.846Z,73.74
2023-03-29T10:50:49.635Z,73.64
2023-03-29T10:51:49.478Z,74.19
2023-03-29T10:52:49.483Z,74.35
2023-03-29T10:53:49.449Z,76.20
2023-03-29T10:54:49.431Z,73.91
2023-03-29T10:55:49.629Z,73.30
2023-03-29T10:56:50.810Z,73.20
2023-03-29T10:57:49.540Z,72.99
2023-03-29T10:58:49.414Z,72.38
2023-03-29T10:59:49.419Z,74.22
2023-03-29T11:00:49.392Z,75.41
2023-03-29T11:01:49.392Z,73.47
2023-03-29T11:02:49.450Z,73.16
2023-03-29T11:03:49.509Z,72.96
2023-03-29T11:04:49.387Z,73.57
2023-03-29T11:05:49.331Z,73.47
2023-03-29T11:06:49.328Z,72.21
2023-03-29T11:07:49.328Z,74.18
2023-03-29T11:08:49.298Z,72.58
2023-03-29T11:09:49.318Z,72.48
2023-03-29T11:10:49.540Z,72.14
2023-03-29T11:11:49.248Z,71.42
2023-03-29T11:12:49.310Z,73.98
2023-03-29T11:13:49.451Z,73.68
2023-03-29T11:14:49.339Z,73.57
2023-03-29T11:15:49.333Z,75.31
2023-03-29T11:16:49.211Z,75.55
2023-03-29T11:17:49.318Z,73.71
2023-03-29T11:18:49.729Z,74.22
2023-03-29T11:19:49.365Z,72.92
2023-03-29T11:20:50.112Z,73.74
2023-03-29T11:21:49.219Z,73.74
2023-03-29T11:22:49.199Z,75.59
2023-03-29T11:23:49.292Z,75.68
2023-03-29T11:24:49.166Z,75.38
2023-03-29T11:25:49.317Z,74.15
2023-03-29T11:26:49.281Z,75.38
2023-03-29T11:27:49.134Z,74.46
2023-03-29T11:28:49.138Z,74.05
2023-03-29T11:29:49.142Z,74.26
2023-03-29T11:30:49.141Z,73.85
2023-03-29T11:31:49.197Z,74.35
2023-03-29T11:32:49.881Z,74.66
2023-03-29T11:33:49.092Z,73.71
2023-03-29T11:34:49.124Z,73.91
2023-03-29T11:35:49.086Z,74.02
2023-03-29T11:36:49.030Z,73.20
2023-03-29T11:37:49.047Z,73.50
2023-03-29T11:38:49.068Z,72.86
2023-03-29T11:39:49.072Z,72.65
2023-03-29T11:40:49.014Z,74.05
2023-03-29T11:41:49.079Z,73.44
2023-03-29T11:42:49.082Z,73.84
2023-03-29T11:43:49.186Z,72.11
2023-03-29T11:44:48.963Z,73.54
2023-03-29T11:45:48.973Z,75.37
2023-03-29T11:46:48.981Z,73.71
2023-03-29T11:47:48.941Z,72.82
2023-03-29T11:48:48.931Z,71.91
2023-03-29T11:49:48.981Z,72.11
2023-03-29T11:50:48.890Z,73.03
2023-03-29T11:51:48.945Z,71.39
2023-03-29T11:52:48.853Z,72.52
2023-03-29T11:53:48.943Z,71.63
2023-03-29T11:54:48.825Z,72.96
2023-03-29T11:55:48.832Z,71.53
2023-03-29T11:56:48.980Z,73.74
2023-03-29T11:57:48.825Z,74.15
2023-03-29T11:58:48.813Z,73.33
2023-03-29T11:59:48.822Z,73.71
2023-03-29T12:00:48.846Z,74.01
2023-03-29T12:01:48.910Z,73.50
2023-03-29T12:02:48.936Z,72.79
2023-03-29T12:03:48.878Z,72.79
2023-03-29T12:04:48.784Z,73.13
2023-03-29T12:05:48.772Z,74.52
2023-03-29T12:06:48.803Z,72.79
2023-03-29T12:07:48.770Z,75.04
2023-03-29T12:08:48.727Z,73.30
2023-03-29T12:09:49.289Z,71.97
2023-03-29T12:10:48.745Z,72.38
2023-03-29T12:11:48.716Z,73.71
2023-03-29T12:12:48.632Z,72.75
2023-03-29T12:13:48.743Z,74.01
2023-03-29T12:14:48.691Z,73.57
2023-03-29T12:15:48.702Z,73.77
2023-03-29T12:16:48.891Z,73.50
2023-03-29T12:17:48.751Z,73.60
2023-03-29T12:18:48.671Z,73.81
2023-03-29T12:19:48.614Z,75.04
2023-03-29T12:20:48.592Z,73.40
2023-03-29T12:21:48.629Z,73.71
2023-03-29T12:22:48.707Z,73.57
2023-03-29T12:23:48.605Z,71.12
2023-03-29T12:24:48.541Z,72.55
2023-03-29T12:25:48.616Z,73.27
2023-03-29T12:26:48.590Z,72.24
2023-03-29T12:27:48.569Z,72.96
2023-03-29T12:28:48.565Z,73.36
2023-03-29T12:29:48.506Z,71.22
2023-03-29T12:30:48.531Z,71.43
2023-03-29T12:31:48.568Z,71.73
2023-03-29T12:32:48.558Z,71.73
2023-03-29T12:33:48.477Z,72.11
2023-03-29T12:34:48.536Z,71.39
2023-03-29T12:35:48.464Z,71.29
2023-03-29T12:36:48.552Z,71.50
2023-03-29T12:37:48.493Z,71.39
2023-03-29T12:38:48.531Z,70.98
2023-03-29T12:39:48.451Z,71.39
2023-03-29T12:40:48.381Z,71.36
2023-03-29T12:41:48.463Z,74.05
2023-03-29T12:42:48.366Z,72.52
2023-03-29T12:43:48.433Z,71.06
2023-03-29T12:44:48.381Z,71.46
2023-03-29T12:45:48.452Z,71.36
2023-03-29T12:46:48.351Z,71.26
2023-03-29T12:47:48.457Z,71.15
2023-03-29T12:48:48.605Z,71.29
2023-03-29T12:49:48.309Z,69.86
2023-03-29T12:50:48.294Z,71.39
2023-03-29T12:51:48.374Z,72.92
2023-03-29T12:52:48.271Z,73.33
2023-03-29T12:53:48.415Z,71.26
2023-03-29T12:54:49.280Z,72.82
2023-03-29T12:55:48.339Z,71.39
2023-03-29T12:56:48.245Z,72.92
2023-03-29T12:57:48.246Z,71.46
2023-03-29T12:58:48.250Z,71.39
2023-03-29T12:59:48.240Z,71.29
2023-03-29T13:00:48.413Z,72.00
2023-03-29T13:01:48.278Z,72.00
2023-03-29T13:02:48.288Z,71.09
2023-03-29T13:03:48.190Z,70.98
2023-03-29T13:04:48.253Z,71.77
2023-03-29T13:05:48.188Z,71.46